createdAt,value
2023-05-12T00:01:24.369Z,99470.77
2023-05-12T00:03:54.092Z,99469.77
2023-05-12T00:06:22.263Z,99473.70
2023-05-12T00:08:50.785Z,99472.88
2023-05-12T00:11:18.777Z,99475.02
2023-05-12T00:13:47.008Z,99474.77
2023-05-12T00:16:17.739Z,99470.36
2023-05-12T00:18:45.983Z,99472.71
2023-05-12T00:21:13.755Z,99477.60
2023-05-12T00:23:41.668Z,99476.02
2023-05-12T00:26:09.476Z,99475.74
2023-05-12T00:28:37.229Z,99477.80
2023-05-12T00:31:05.962Z,99480.13
2023-05-12T00:33:34.325Z,99480.88
2023-05-12T00:36:03.709Z,99480.08
2023-05-12T00:38:31.648Z,99482.51
2023-05-12T00:40:59.376Z,99490.05
2023-05-12T00:43:27.226Z,99490.27
2023-05-12T00:45:55.590Z,99488.59
2023-05-12T00:48:24.542Z,99489.02
2023-05-12T00:50:52.425Z,99489.24
2023-05-12T00:53:20.446Z,99491.63
2023-05-12T00:55:48.275Z,99494.80
2023-05-12T00:58:16.138Z,99497.99
2023-05-12T01:00:44.146Z,99493.52
2023-05-12T01:03:12.758Z,99491.64
2023-05-12T01:06:00.458Z,99493.32
2023-05-12T01:08:29.634Z,99497.76
2023-05-12T01:10:57.335Z,99498.23
2023-05-12T01:13:27.257Z,99503.84
2023-05-12T01:15:58.631Z,99504.65
2023-05-12T01:18:27.911Z,99507.13
2023-05-12T01:20:57.035Z,99509.20
2023-05-12T01:23:31.825Z,99510.89
2023-05-12T01:26:06.918Z,99508.02
2023-05-12T01:28:36.522Z,99508.70
2023-05-12T01:31:06.720Z,99507.66
2023-05-12T01:33:35.856Z,99507.92
2023-05-12T01:36:04.281Z,99509.16
2023-05-12T01:38:32.555Z,99510.66
2023-05-12T01:41:00.386Z,99512.08
2023-05-12T01:43:28.354Z,99509.83
2023-05-12T01:45:56.153Z,99511.92
2023-05-12T01:48:24.019Z,99514.46
2023-05-12T01:50:52.423Z,99517.38
2023-05-12T01:53:20.891Z,99523.21
2023-05-12T01:55:48.705Z,99520.61
2023-05-12T01:58:16.539Z,99519.12
2023-05-12T02:00:44.345Z,99520.42
2023-05-12T02:03:12.310Z,99519.16
2023-05-12T02:05:40.761Z,99518.30
2023-05-12T02:08:09.467Z,99520.42
2023-05-12T02:10:37.401Z,99521.60
2023-05-12T02:13:05.305Z,99517.50
2023-05-12T02:15:33.049Z,99514.11
2023-05-12T02:18:01.600Z,99515.02
2023-05-12T02:20:30.069Z,99513.56
2023-05-12T02:22:57.878Z,99516.00
2023-05-12T02:25:26.030Z,99513.77
2023-05-12T02:27:53.795Z,99516.92
2023-05-12T02:30:21.835Z,99516.74
2023-05-12T02:32:50.767Z,99523.90
2023-05-12T02:35:19.195Z,99516.77
2023-05-12T02:37:47.008Z,99520.46
2023-05-12T02:40:14.911Z,99519.09
2023-05-12T02:42:43.696Z,99518.63
2023-05-12T02:45:12.099Z,99524.19
2023-05-12T02:47:40.712Z,99526.23
2023-05-12T02:50:09.716Z,99523.20
2023-05-12T02:52:37.501Z,99525.05
2023-05-12T02:55:05.474Z,99525.58
2023-05-12T02:57:34.377Z,99529.61
2023-05-12T03:00:06.441Z,99533.52
2023-05-12T03:02:36.624Z,99534.68
2023-05-12T03:05:06.050Z,99532.60
2023-05-12T03:07:33.781Z,99534.60
2023-05-12T03:10:04.378Z,99536.68
2023-05-12T03:12:32.503Z,99537.70
2023-05-12T03:15:00.862Z,99534.77
2023-05-12T03:17:29.166Z,99533.44
2023-05-12T03:19:57.006Z,99536.06
2023-05-12T03:22:24.925Z,99537.77
2023-05-12T03:24:53.083Z,99537.73
2023-05-12T03:27:21.048Z,99540.94
2023-05-12T03:29:49.760Z,99537.58
2023-05-12T03:32:18.338Z,99539.04
2023-05-12T03:34:48.994Z,99540.72
2023-05-12T03:37:17.199Z,99542.48
2023-05-12T03:39:44.971Z,99541.35
2023-05-12T03:42:14.080Z,99545.83
2023-05-12T03:44:42.848Z,99546.90
2023-05-12T03:47:11.463Z,99547.44
2023-05-12T03:49:39.350Z,99548.96
2023-05-12T03:52:07.510Z,99552.63
2023-05-12T03:54:37.209Z,99553.20
2023-05-12T03:57:06.745Z,99554.33
2023-05-12T03:59:34.476Z,99554.73
2023-05-12T04:02:02.883Z,99556.64
2023-05-12T04:04:30.852Z,99559.84
2023-05-12T04:06:59.831Z,99560.48
2023-05-12T04:09:28.045Z,99565.39
2023-05-12T04:11:55.880Z,99565.98
2023-05-12T04:14:31.817Z,99569.18
2023-05-12T04:17:07.954Z,99571.52
2023-05-12T04:19:35.963Z,99571.27
2023-05-12T04:22:03.902Z,99572.48
2023-05-12T04:24:31.647Z,99572.30
2023-05-12T04:27:08.998Z,99572.83
2023-05-12T04:29:37.247Z,99569.80
2023-05-12T04:32:05.759Z,99572.65
2023-05-12T04:34:34.432Z,99575.24
2023-05-12T04:37:02.230Z,99576.05
2023-05-12T04:39:30.658Z,99576.85
2023-05-12T04:42:06.022Z,99578.34
2023-05-12T04:44:33.887Z,99577.00
2023-05-12T04:47:09.530Z,99584.47
2023-05-12T04:49:37.871Z,99586.11
2023-05-12T04:52:06.042Z,99584.51
2023-05-12T04:54:33.796Z,99586.09
2023-05-12T04:57:01.589Z,99587.59
2023-05-12T04:59:29.698Z,99590.49
2023-05-12T05:01:58.283Z,99593.12
2023-05-12T05:04:26.263Z,99592.40
2023-05-12T05:06:55.771Z,99590.01
2023-05-12T05:09:23.658Z,99597.29
2023-05-12T05:11:51.442Z,99596.70
2023-05-12T05:14:19.298Z,99598.08
2023-05-12T05:16:50.837Z,99602.29
2023-05-12T05:19:24.408Z,99601.80
2023-05-12T05:21:57.937Z,99601.13
2023-05-12T05:24:25.741Z,99600.98
2023-05-12T05:27:01.224Z,99599.90
2023-05-12T05:29:32.080Z,99601.46
2023-05-12T05:31:59.864Z,99602.95
2023-05-12T05:34:30.362Z,99601.88
2023-05-12T05:36:58.186Z,99606.71
2023-05-12T05:39:26.120Z,99613.18
2023-05-12T05:41:54.019Z,99609.98
2023-05-12T05:44:22.244Z,99605.94
2023-05-12T05:46:50.095Z,99607.78
2023-05-12T05:49:29.600Z,99608.94
2023-05-12T05:51:57.342Z,99610.20
2023-05-12T05:54:25.799Z,99615.33
2023-05-12T05:56:53.565Z,99616.38
2023-05-12T05:59:21.332Z,99615.77
2023-05-12T06:01:49.393Z,99617.55
2023-05-12T06:04:25.029Z,99616.91
2023-05-12T06:06:53.606Z,99612.72
2023-05-12T06:09:22.097Z,99616.99
2023-05-12T06:11:50.549Z,99617.65
2023-05-12T06:14:18.354Z,99614.73
2023-05-12T06:16:46.567Z,99614.80
2023-05-12T06:19:15.777Z,99616.02
2023-05-12T06:21:47.187Z,99623.17
2023-05-12T06:24:14.958Z,99621.30
2023-05-12T06:26:42.945Z,99621.15
2023-05-12T06:29:10.757Z,99619.31
2023-05-12T06:31:40.882Z,99626.31
2023-05-12T06:34:09.200Z,99625.27
2023-05-12T06:36:37.518Z,99628.19
2023-05-12T06:39:12.096Z,99626.17
2023-05-12T06:41:40.342Z,99624.55
2023-05-12T06:44:12.715Z,99624.34
2023-05-12T06:46:41.495Z,99619.77
2023-05-12T06:49:12.907Z,99624.09
2023-05-12T06:51:40.828Z,99626.05
2023-05-12T06:54:08.924Z,99626.65
2023-05-12T06:56:38.912Z,99631.96
2023-05-12T06:59:07.106Z,99628.16
2023-05-12T07:01:35.544Z,99629.99
2023-05-12T07:04:03.829Z,99627.65
2023-05-12T07:06:32.477Z,99620.88
2023-05-12T07:09:04.892Z,99619.83
2023-05-12T07:11:33.251Z,99618.80
2023-05-12T07:14:01.609Z,99621.10
2023-05-12T07:16:29.478Z,99616.05
2023-05-12T07:18:57.292Z,99617.61
2023-05-12T07:21:34.834Z,99615.80
2023-05-12T07:24:06.333Z,99619.67
2023-05-12T07:26:34.743Z,99613.33
2023-05-12T07:29:04.055Z,99618.40
2023-05-12T07:31:32.291Z,99623.13
2023-05-12T07:34:02.931Z,99620.20
2023-05-12T07:36:34.462Z,99619.74
2023-05-12T07:39:02.772Z,99621.77
2023-05-12T07:41:31.993Z,99617.45
2023-05-12T07:44:02.657Z,99617.83
2023-05-12T07:46:30.517Z,99614.38
2023-05-12T07:48:58.329Z,99612.33
2023-05-12T07:51:26.659Z,99610.95
2023-05-12T07:53:58.240Z,99609.45
2023-05-12T07:56:26.130Z,99610.43
2023-05-12T07:58:54.031Z,99609.31
2023-05-12T08:01:24.832Z,99612.86
2023-05-12T08:03:52.797Z,99611.33
2023-05-12T08:06:21.508Z,99607.77
2023-05-12T08:08:49.955Z,99611.98
2023-05-12T08:11:17.826Z,99610.55
2023-05-12T08:13:45.756Z,99618.37
2023-05-12T08:16:13.575Z,99612.48
2023-05-12T08:18:41.493Z,99608.36
2023-05-12T08:21:10.447Z,99605.52
2023-05-12T08:23:38.902Z,99608.98
2023-05-12T08:26:09.835Z,99606.16
2023-05-12T08:28:37.759Z,99598.00
2023-05-12T08:31:05.745Z,99600.73
2023-05-12T08:33:36.884Z,99596.91
2023-05-12T08:36:04.960Z,99597.02
2023-05-12T08:38:33.623Z,99597.39
2023-05-12T08:41:13.763Z,99596.83
2023-05-12T08:43:44.587Z,99596.32
2023-05-12T08:46:13.242Z,99595.02
2023-05-12T08:48:41.972Z,99593.34
2023-05-12T08:51:12.005Z,99596.42
2023-05-12T08:53:42.014Z,99592.67
2023-05-12T08:58:45.870Z,99592.05
2023-05-12T09:01:16.232Z,99590.77
2023-05-12T09:03:45.072Z,99588.16
2023-05-12T09:06:13.467Z,99587.23
2023-05-12T09:08:44.055Z,99592.84
2023-05-12T09:11:13.650Z,99594.02
2023-05-12T09:14:01.108Z,99581.90
2023-05-12T09:16:35.910Z,99586.63
2023-05-12T09:19:07.161Z,99588.56
2023-05-12T09:21:35.397Z,99584.88
2023-05-12T09:24:06.782Z,99589.70
2023-05-12T09:26:54.493Z,99585.67
2023-05-12T09:29:31.215Z,99583.48
2023-05-12T09:32:03.539Z,99584.39
2023-05-12T09:34:35.630Z,99582.35
2023-05-12T09:37:06.749Z,99580.30
2023-05-12T09:39:36.524Z,99579.02
2023-05-12T09:42:12.469Z,99580.11
2023-05-12T09:44:41.384Z,99584.88
2023-05-12T09:47:10.687Z,99580.23
2023-05-12T09:49:39.241Z,99577.00
2023-05-12T09:52:07.072Z,99580.39
2023-05-12T09:54:35.006Z,99580.85
2023-05-12T09:57:07.665Z,99578.44
2023-05-12T09:59:38.665Z,99576.42
2023-05-12T10:02:09.727Z,99575.95
2023-05-12T10:04:48.128Z,99575.13
2023-05-12T10:07:17.410Z,99578.17
2023-05-12T10:09:48.519Z,99569.55
2023-05-12T10:12:17.167Z,99570.96
2023-05-12T10:14:45.915Z,99574.69
2023-05-12T10:17:15.727Z,99569.74
2023-05-12T10:19:44.593Z,99575.23
2023-05-12T10:22:16.213Z,99570.22
2023-05-12T10:24:45.914Z,99577.13
2023-05-12T10:27:17.553Z,99580.47
2023-05-12T10:29:47.008Z,99570.61
2023-05-12T10:32:17.963Z,99585.86
2023-05-12T10:34:46.030Z,99588.65
2023-05-12T10:37:13.902Z,99581.64
2023-05-12T10:39:50.681Z,99576.89
2023-05-12T10:42:27.050Z,99580.92
2023-05-12T10:44:56.437Z,99576.55
2023-05-12T10:47:37.399Z,99572.70
2023-05-12T10:50:06.537Z,99569.02
2023-05-12T10:52:34.825Z,99573.48
2023-05-12T10:55:04.543Z,99574.23
2023-05-12T10:57:33.754Z,99573.15
2023-05-12T11:00:04.080Z,99571.61
2023-05-12T11:02:36.313Z,99571.73
2023-05-12T11:05:14.050Z,99572.58
2023-05-12T11:07:50.190Z,99573.56
2023-05-12T11:10:19.496Z,99575.30
2023-05-12T11:12:47.963Z,99575.09
2023-05-12T11:15:18.116Z,99568.86
2023-05-12T11:17:46.744Z,99574.61
2023-05-12T11:20:33.336Z,99570.08
2023-05-12T11:23:01.070Z,99567.00
2023-05-12T11:25:28.937Z,99568.39
2023-05-12T11:27:57.202Z,99574.35
2023-05-12T11:30:24.992Z,99575.46
2023-05-12T11:33:03.681Z,99577.15
2023-05-12T11:35:32.633Z,99572.45
2023-05-12T11:38:02.979Z,99574.36
2023-05-12T11:40:31.932Z,99570.30
2023-05-12T11:43:10.153Z,99568.92
2023-05-12T11:45:38.797Z,99574.00
2023-05-12T11:48:12.112Z,99582.45
2023-05-12T11:50:42.304Z,99568.54
2023-05-12T11:53:13.657Z,99573.41
2023-05-12T11:55:55.841Z,99568.98
2023-05-12T11:58:26.820Z,99574.71
2023-05-12T12:00:57.360Z,99563.61
2023-05-12T12:03:25.323Z,99574.27
2023-05-12T12:06:01.929Z,99569.89
2023-05-12T12:08:31.892Z,99569.38
2023-05-12T12:11:02.800Z,99576.77
2023-05-12T12:13:31.668Z,99572.77
2023-05-12T12:15:59.480Z,99567.50
2023-05-12T12:18:27.467Z,99567.63
2023-05-12T12:20:55.393Z,99576.64
2023-05-12T12:23:23.574Z,99573.27
2023-05-12T12:25:52.083Z,99572.20
2023-05-12T12:28:20.633Z,99573.14
2023-05-12T12:30:48.674Z,99569.79
2023-05-12T12:33:18.724Z,99565.41
2023-05-12T12:35:48.147Z,99560.25
2023-05-12T12:38:16.950Z,99566.56
2023-05-12T12:40:47.887Z,99560.31
2023-05-12T12:43:15.654Z,99561.05
2023-05-12T12:45:43.346Z,99556.98
2023-05-12T12:48:11.096Z,99554.06
2023-05-12T12:50:39.642Z,99554.59
2023-05-12T12:53:07.948Z,99549.77
2023-05-12T12:55:36.023Z,99558.24
2023-05-12T12:58:03.830Z,99551.52
2023-05-12T13:00:31.573Z,99556.42
2023-05-12T13:02:59.567Z,99558.34
2023-05-12T13:05:27.870Z,99561.97
2023-05-12T13:07:56.554Z,99552.21
2023-05-12T13:10:25.446Z,99555.42
2023-05-12T13:12:53.732Z,99553.54
2023-05-12T13:15:22.013Z,99554.69
2023-05-12T13:17:50.661Z,99560.27
2023-05-12T13:20:19.455Z,99555.61
2023-05-12T13:22:47.854Z,99548.98
2023-05-12T13:25:18.892Z,99549.75
2023-05-12T13:27:46.973Z,99546.52
2023-05-12T13:30:15.481Z,99543.95
2023-05-12T13:32:43.820Z,99545.36
2023-05-12T13:35:17.409Z,99542.45
2023-05-12T13:38:12.710Z,99547.86
2023-05-12T13:40:41.643Z,99546.20
2023-05-12T13:43:10.018Z,99546.38
2023-05-12T13:45:38.331Z,99549.05
2023-05-12T13:48:06.595Z,99546.57
2023-05-12T13:50:34.528Z,99545.34
2023-05-12T13:53:02.431Z,99547.08
2023-05-12T13:55:40.820Z,99544.55
2023-05-12T13:58:09.333Z,99544.76
2023-05-12T14:00:40.513Z,99540.52
2023-05-12T14:03:08.410Z,99539.23
2023-05-12T14:05:36.505Z,99538.54
2023-05-12T14:08:04.630Z,99539.92
2023-05-12T14:10:35.389Z,99537.09
2023-05-12T14:13:03.842Z,99542.45
2023-05-12T14:15:44.672Z,99545.10
2023-05-12T14:18:16.900Z,99537.86
2023-05-12T14:20:45.363Z,99536.54
2023-05-12T14:23:14.337Z,99534.01
2023-05-12T14:25:42.743Z,99538.98
2023-05-12T14:28:10.704Z,99542.09
2023-05-12T14:30:38.838Z,99532.86
2023-05-12T14:33:06.734Z,99537.89
2023-05-12T14:35:35.115Z,99541.48
2023-05-12T14:38:03.402Z,99534.84
2023-05-12T14:40:31.201Z,99538.92
2023-05-12T14:43:00.191Z,99539.95
2023-05-12T14:45:28.439Z,99540.17
2023-05-12T14:47:56.976Z,99540.62
2023-05-12T14:50:25.464Z,99539.38
2023-05-12T14:52:53.216Z,99535.84
2023-05-12T14:55:21.411Z,99535.65
2023-05-12T14:57:49.743Z,99535.64
2023-05-12T15:00:19.101Z,99535.67
2023-05-12T15:02:47.910Z,99539.75
2023-05-12T15:05:16.319Z,99540.54
2023-05-12T15:07:44.155Z,99535.27
2023-05-12T15:10:22.881Z,99546.46
2023-05-12T15:12:51.306Z,99543.45
2023-05-12T15:15:19.832Z,99540.48
2023-05-12T15:17:47.982Z,99543.96
2023-05-12T15:20:15.888Z,99541.75
2023-05-12T15:22:43.811Z,99540.15
2023-05-12T15:25:11.747Z,99539.48
2023-05-12T15:27:39.913Z,99540.78
2023-05-12T15:30:09.020Z,99536.59
2023-05-12T15:32:39.651Z,99540.02
2023-05-12T15:35:08.696Z,99536.35
2023-05-12T15:37:36.953Z,99533.94
2023-05-12T15:40:05.460Z,99533.08
2023-05-12T15:42:33.807Z,99536.20
2023-05-12T15:45:02.312Z,99535.38
2023-05-12T15:47:30.614Z,99530.51
2023-05-12T15:49:58.521Z,99530.09
2023-05-12T15:52:27.997Z,99532.70
2023-05-12T15:54:56.118Z,99527.83
2023-05-12T15:57:27.751Z,99532.91
2023-05-12T15:59:59.945Z,99532.98
2023-05-12T16:02:28.256Z,99532.70
2023-05-12T16:04:56.166Z,99536.25
2023-05-12T16:07:29.457Z,99532.83
2023-05-12T16:09:58.556Z,99536.65
2023-05-12T16:12:29.139Z,99535.21
2023-05-12T16:14:57.018Z,99534.83
2023-05-12T16:17:24.848Z,99535.45
2023-05-12T16:19:53.742Z,99539.27
2023-05-12T16:22:22.159Z,99540.57
2023-05-12T16:24:50.676Z,99538.74
2023-05-12T16:27:18.452Z,99537.96
2023-05-12T16:29:48.188Z,99541.88
2023-05-12T16:32:17.245Z,99542.04
2023-05-12T16:34:45.796Z,99544.53
2023-05-12T16:37:14.063Z,99542.34
2023-05-12T16:39:42.773Z,99543.76
2023-05-12T16:42:10.616Z,99540.36
2023-05-12T16:44:38.555Z,99542.61
2023-05-12T16:47:07.138Z,99544.05
2023-05-12T16:49:35.317Z,99546.27
2023-05-12T16:52:03.297Z,99549.90
2023-05-12T16:54:32.856Z,99546.12
2023-05-12T16:57:02.239Z,99549.36
2023-05-12T16:59:32.543Z,99551.23
2023-05-12T17:02:01.406Z,99549.80
2023-05-12T17:04:29.803Z,99555.86
2023-05-12T17:06:58.133Z,99560.25
2023-05-12T17:09:25.882Z,99561.26
2023-05-12T17:11:53.705Z,99561.79
2023-05-12T17:14:21.946Z,99564.16
2023-05-12T17:16:50.398Z,99562.77
2023-05-12T17:19:18.754Z,99563.14
2023-05-12T17:21:46.648Z,99563.27
2023-05-12T17:24:14.485Z,99562.30
2023-05-12T17:26:42.319Z,99560.02
2023-05-12T17:29:10.076Z,99563.65
2023-05-12T17:31:39.348Z,99564.19
2023-05-12T17:34:07.346Z,99563.65
2023-05-12T17:36:35.587Z,99567.65
2023-05-12T17:39:03.854Z,99571.77
2023-05-12T17:41:31.672Z,99573.47
2023-05-12T17:43:59.926Z,99576.45
2023-05-12T17:46:28.259Z,99581.27
2023-05-12T17:48:56.189Z,99580.39
2023-05-12T17:51:24.023Z,99581.45
2023-05-12T17:53:51.792Z,99587.39
2023-05-12T17:56:20.178Z,99584.46
2023-05-12T17:58:48.198Z,99589.59
2023-05-12T18:01:16.503Z,99590.60
2023-05-12T18:03:44.399Z,99593.63
2023-05-12T18:06:12.977Z,99592.50
2023-05-12T18:08:41.450Z,99596.90
2023-05-12T18:11:09.226Z,99601.43
2023-05-12T18:13:37.091Z,99601.52
2023-05-12T18:16:07.416Z,99608.54
2023-05-12T18:18:37.016Z,99610.31
2023-05-12T18:21:05.040Z,99613.33
2023-05-12T18:23:33.357Z,99617.40
2023-05-12T18:26:01.268Z,99615.20
2023-05-12T18:28:29.218Z,99620.93
2023-05-12T18:31:06.063Z,99623.15
2023-05-12T18:33:47.579Z,99631.80
2023-05-12T18:36:16.893Z,99630.20
2023-05-12T18:38:48.071Z,99637.34
2023-05-12T18:41:16.786Z,99634.37
2023-05-12T18:43:44.880Z,99637.62
2023-05-12T18:46:15.870Z,99640.15
2023-05-12T18:48:43.695Z,99638.13
2023-05-12T18:51:11.679Z,99640.95
2023-05-12T18:53:39.537Z,99640.70
2023-05-12T18:56:07.523Z,99640.43
2023-05-12T18:58:36.314Z,99641.90
2023-05-12T19:01:05.295Z,99644.92
2023-05-12T19:03:37.478Z,99644.04
2023-05-12T19:06:05.312Z,99643.95
2023-05-12T19:08:36.502Z,99646.65
2023-05-12T19:11:04.351Z,99653.11
2023-05-12T19:13:32.745Z,99650.48
2023-05-12T19:16:00.783Z,99655.94
2023-05-12T19:18:28.603Z,99661.70
2023-05-12T19:20:57.037Z,99660.94
2023-05-12T19:23:24.908Z,99663.63
2023-05-12T19:25:52.709Z,99663.23
2023-05-12T19:28:20.927Z,99662.23
2023-05-12T19:30:48.752Z,99665.02
2023-05-12T19:33:24.742Z,99662.60
2023-05-12T19:35:58.412Z,99668.72
2023-05-12T19:38:26.815Z,99670.88
2023-05-12T19:40:55.748Z,99673.58
2023-05-12T19:43:23.616Z,99675.35
2023-05-12T19:45:51.525Z,99672.86
2023-05-12T19:48:20.181Z,99672.64
2023-05-12T19:50:47.989Z,99672.41
2023-05-12T19:53:19.071Z,99670.25
2023-05-12T19:55:46.919Z,99673.78
2023-05-12T19:58:14.683Z,99673.70
2023-05-12T20:00:54.492Z,99674.55
2023-05-12T20:03:23.231Z,99674.69
2023-05-12T20:05:51.264Z,99674.44
2023-05-12T20:08:19.164Z,99677.62
2023-05-12T20:10:47.131Z,99677.09
2023-05-12T20:13:14.978Z,99676.25
2023-05-12T20:15:46.349Z,99678.81
2023-05-12T20:18:15.804Z,99675.06
2023-05-12T20:20:49.083Z,99672.65
2023-05-12T20:23:16.961Z,99674.86
2023-05-12T20:25:44.777Z,99672.35
2023-05-12T20:28:13.299Z,99673.91
2023-05-12T20:30:41.908Z,99670.65
2023-05-12T20:33:09.713Z,99675.50
2023-05-12T20:35:37.548Z,99676.54
2023-05-12T20:38:10.120Z,99674.27
2023-05-12T20:40:43.052Z,99676.93
2023-05-12T20:43:13.565Z,99675.53
2023-05-12T20:45:49.727Z,99678.23
2023-05-12T20:48:25.400Z,99678.04
2023-05-12T20:50:55.707Z,99684.09
2023-05-12T20:53:29.089Z,99680.39
2023-05-12T20:55:57.099Z,99675.36
2023-05-12T20:58:30.220Z,99678.36
2023-05-12T21:00:59.088Z,99680.67
2023-05-12T21:03:30.382Z,99683.48
2023-05-12T21:06:01.414Z,99683.45
2023-05-12T21:08:29.328Z,99684.15
2023-05-12T21:11:00.178Z,99684.17
2023-05-12T21:13:32.599Z,99684.88
2023-05-12T21:16:01.022Z,99684.16
2023-05-12T21:18:29.257Z,99687.69
2023-05-12T21:20:57.015Z,99687.58
2023-05-12T21:23:24.873Z,99688.10
2023-05-12T21:25:53.539Z,99684.99
2023-05-12T21:28:21.502Z,99687.13
2023-05-12T21:30:53.167Z,99692.63
2023-05-12T21:33:21.017Z,99693.17
2023-05-12T21:35:50.061Z,99696.92
2023-05-12T21:38:17.938Z,99697.12
2023-05-12T21:40:50.415Z,99698.40
2023-05-12T21:43:19.152Z,99696.61
2023-05-12T21:45:47.077Z,99697.24
2023-05-12T21:48:15.481Z,99700.33
2023-05-12T21:50:43.239Z,99694.03
2023-05-12T21:53:11.004Z,99691.98
2023-05-12T21:55:41.805Z,99691.39
2023-05-12T21:58:10.461Z,99691.66
2023-05-12T22:00:38.654Z,99689.66
2023-05-12T22:03:08.702Z,99693.52
2023-05-12T22:05:36.655Z,99695.30
2023-05-12T22:08:04.716Z,99698.35
2023-05-12T22:10:32.473Z,99701.58
2023-05-12T22:13:00.236Z,99701.79
2023-05-12T22:15:28.021Z,99703.86
2023-05-12T22:17:55.971Z,99707.41
2023-05-12T22:20:24.340Z,99712.94
2023-05-12T22:22:52.188Z,99712.62
2023-05-12T22:25:20.279Z,99719.38
2023-05-12T22:27:48.113Z,99717.45
2023-05-12T22:30:16.619Z,99715.08
2023-05-12T22:32:45.114Z,99712.02
2023-05-12T22:35:13.172Z,99713.20
2023-05-12T22:37:41.136Z,99709.16
2023-05-12T22:40:09.812Z,99711.06
2023-05-12T22:42:37.573Z,99712.10
2023-05-12T22:45:06.189Z,99706.23
2023-05-12T22:47:34.134Z,99705.64
2023-05-12T22:50:02.028Z,99700.92
2023-05-12T22:52:29.926Z,99700.14
2023-05-12T22:54:57.779Z,99700.62
2023-05-12T22:57:25.942Z,99698.63
2023-05-12T22:59:53.924Z,99698.87
2023-05-12T23:02:21.963Z,99700.86
2023-05-12T23:04:49.829Z,99699.60
2023-05-12T23:07:17.758Z,99696.01
2023-05-12T23:09:45.860Z,99697.36
2023-05-12T23:12:13.713Z,99697.79
2023-05-12T23:14:41.638Z,99692.95
2023-05-12T23:17:09.938Z,99692.69
2023-05-12T23:19:37.954Z,99692.77
2023-05-12T23:22:08.769Z,99701.53
2023-05-12T23:24:36.716Z,99704.19
2023-05-12T23:27:05.277Z,99711.33
2023-05-12T23:29:34.674Z,99710.56
2023-05-12T23:32:03.218Z,99707.82
2023-05-12T23:34:31.078Z,99712.98
2023-05-12T23:36:58.880Z,99713.00
2023-05-12T23:39:26.908Z,99714.13
2023-05-12T23:41:55.388Z,99715.13
2023-05-12T23:44:23.716Z,99712.55
2023-05-12T23:46:52.271Z,99708.41
2023-05-12T23:49:20.371Z,99706.02
2023-05-12T23:51:48.153Z,99713.30
2023-05-12T23:54:15.966Z,99711.18
2023-05-12T23:56:44.288Z,99708.58
2023-05-12T23:59:12.462Z,99710.08
